Aérodrome :
LOGIN :

S'inscrire | Disclaimer

   EN    FR    IT 

 










Légende :    VFR   VFR Marginal   IFR   IFR Intensif   IFR Très Intensif
Visi : 
Plafond : 
>= 8 km
>= 3000ft
5 à 8 km
1000 à 3000 ft
1500m à 5 km
500 à 1000 ft
800 à 1500m
200 à 500 ft
< 800m
< 200 ft
Symboles :   Orages  Brouillard  Fortes neiges  Fortes précipitations  Vent > 20 kt
SIGMETs :   Divers  Orages  Givrage  Turbulence  Onde Orograph.  Cendres Volcan.






- Altitude de l'aérodrome : 423 ft
- Code IATA : PIS


LFBI - Poitiers

DERNIER METAR :
  • 120530Z AUTO 22010KT CAVOK 06/05 Q1009 TEMPO BKN005

METARs EXPIRÉS :
  • 120500Z AUTO 23012KT CAVOK 06/06 Q1010 TEMPO BKN005
  • 120430Z AUTO 23009KT 9999 FEW046 BKN060 BKN082 06/05 Q1010 TEMPO BKN005
  • 120400Z AUTO 28007KT 230V320 9999 BKN031 BKN044 OVC052 06/05 Q1010 NOSIG
  • 120330Z AUTO 22009KT CAVOK 04/04 Q1010 NOSIG
  • 120300Z AUTO 20009KT CAVOK 05/04 Q1011 NOSIG

TAF TAF LFBI
Valide du 12 à 06h jusqu'au 13 à 06h UTC


120500Z 1206/1306 23010KT 9999 SCT040
PROB30
TEMPO 1206/1209 BKN005
BECMG 1212/1214 29010KT
PROB40
TEMPO 1214/1218 4000 -SHRA BKN030TCU
BECMG 1219/1221 23005KT
PROB40 1300/1306 3000 BR
PROB30 1303/1306 0500 FG VV///



MET'MAP, la Météo Aéronautique d'un coup d'oeil ! - Copyright ORBIFLY Décembre 2007 - Disclaimer

ORBIFLY MET'MAP TEAM :

Programmation & Développement : Alexandra Zaïnal
Conception & Développement : Baudouin d'Aumeries
Co-Programmation & Développement : Marc-Olivier Méhu
Soutien technique & logistique : Manuel Goepfert

Contact : metmap@orbifly.com




SOURCES & CREDITS :

   NOAA